Terminal Aerodrome Forecast
Issued by NWS

Home | Current Version | Previous Version | Text Only | Print | Product List | Glossary On
Versions: 1 2 3 4 5 6 7 8 9 10 11 12 13 14 15 16 17 18 19 20 21 22 23 24 25
000
FTUS44 KLZK 192004 AAB
TAFHRO
TAF AMD
KHRO 192004Z 1920/2018 16005KT 6SM BR OVC010
     FM200300 15005KT 3SM BR OVC005
     FM200900 VRB04KT 1SM BR OVC003
      TEMPO 2010/2014 1/4SM FG VV002=

USA.gov is the U.S. government's official web portal to all federal, state and local government web resources and services.